sensor_id;sensor_type;location;lat;lon;timestamp;pressure;altitude;pressure_sealevel;temperature;humidity
6144;BME280;3103;49.492;8.474;2023-08-12T00:00:22;100714.59;;;24.71;63.58
6144;BME280;3103;49.492;8.474;2023-08-12T00:02:49;100718.50;;;24.61;63.59
6144;BME280;3103;49.492;8.474;2023-08-12T00:05:16;100716.75;;;24.48;64.28
6144;BME280;3103;49.492;8.474;2023-08-12T00:07:43;100713.38;;;24.51;64.32
6144;BME280;3103;49.492;8.474;2023-08-12T00:10:11;100706.56;;;24.48;64.62
6144;BME280;3103;49.492;8.474;2023-08-12T00:12:39;100702.53;;;24.46;64.84
6144;BME280;3103;49.492;8.474;2023-08-12T00:15:07;100707.88;;;24.42;65.11
6144;BME280;3103;49.492;8.474;2023-08-12T00:17:35;100697.38;;;24.27;65.85
6144;BME280;3103;49.492;8.474;2023-08-12T00:20:08;100700.13;;;24.27;65.92
6144;BME280;3103;49.492;8.474;2023-08-12T00:22:39;100688.13;;;24.57;64.59
6144;BME280;3103;49.492;8.474;2023-08-12T00:25:06;100682.91;;;24.73;63.72
6144;BME280;3103;49.492;8.474;2023-08-12T00:27:34;100672.94;;;24.60;64.47
6144;BME280;3103;49.492;8.474;2023-08-12T00:30:03;100670.84;;;24.57;64.60
6144;BME280;3103;49.492;8.474;2023-08-12T00:32:33;100667.97;;;24.45;65.18
6144;BME280;3103;49.492;8.474;2023-08-12T00:35:01;100669.28;;;24.39;65.70
6144;BME280;3103;49.492;8.474;2023-08-12T00:37:31;100662.00;;;24.43;65.37
6144;BME280;3103;49.492;8.474;2023-08-12T00:39:58;100654.72;;;24.47;65.58
6144;BME280;3103;49.492;8.474;2023-08-12T00:42:26;100653.09;;;24.46;65.62
6144;BME280;3103;49.492;8.474;2023-08-12T00:44:53;100643.78;;;24.38;66.44
6144;BME280;3103;49.492;8.474;2023-08-12T00:47:20;100645.53;;;24.43;65.97
6144;BME280;3103;49.492;8.474;2023-08-12T00:49:49;100650.06;;;24.39;66.05
6144;BME280;3103;49.492;8.474;2023-08-12T00:52:17;100649.59;;;24.37;66.29
6144;BME280;3103;49.492;8.474;2023-08-12T00:54:45;100648.41;;;24.46;65.79
6144;BME280;3103;49.492;8.474;2023-08-12T00:57:13;100655.97;;;24.67;64.96
6144;BME280;3103;49.492;8.474;2023-08-12T00:59:41;100642.44;;;24.53;65.55
6144;BME280;3103;49.492;8.474;2023-08-12T01:02:11;100654.72;;;24.47;65.75
6144;BME280;3103;49.492;8.474;2023-08-12T01:04:39;100644.38;;;24.52;65.93
6144;BME280;3103;49.492;8.474;2023-08-12T01:07:08;100651.28;;;24.67;65.30
6144;BME280;3103;49.492;8.474;2023-08-12T01:09:37;100648.81;;;24.74;64.90
6144;BME280;3103;49.492;8.474;2023-08-12T01:12:37;100653.34;;;24.79;64.58
6144;BME280;3103;49.492;8.474;2023-08-12T01:15:13;100651.50;;;24.92;63.64
6144;BME280;3103;49.492;8.474;2023-08-12T01:17:43;100650.84;;;24.95;63.39
6144;BME280;3103;49.492;8.474;2023-08-12T01:20:11;100649.78;;;24.78;63.60
6144;BME280;3103;49.492;8.474;2023-08-12T01:22:44;100654.25;;;24.92;63.12
6144;BME280;3103;49.492;8.474;2023-08-12T01:25:11;100651.31;;;24.97;62.68
6144;BME280;3103;49.492;8.474;2023-08-12T01:27:38;100656.81;;;24.97;62.57
6144;BME280;3103;49.492;8.474;2023-08-12T01:30:06;100657.16;;;24.95;62.55
6144;BME280;3103;49.492;8.474;2023-08-12T01:32:43;100662.19;;;24.84;62.93
6144;BME280;3103;49.492;8.474;2023-08-12T01:35:17;100665.41;;;24.86;62.82
6144;BME280;3103;49.492;8.474;2023-08-12T01:37:48;100664.66;;;24.77;63.32
6144;BME280;3103;49.492;8.474;2023-08-12T01:40:19;100659.03;;;24.65;63.90
6144;BME280;3103;49.492;8.474;2023-08-12T01:42:47;100655.13;;;24.75;63.77
6144;BME280;3103;49.492;8.474;2023-08-12T01:45:15;100652.69;;;24.73;64.37
6144;BME280;3103;49.492;8.474;2023-08-12T01:47:43;100651.81;;;24.52;65.34
6144;BME280;3103;49.492;8.474;2023-08-12T01:50:10;100658.47;;;24.42;65.85
6144;BME280;3103;49.492;8.474;2023-08-12T01:52:38;100657.66;;;24.42;66.08
6144;BME280;3103;49.492;8.474;2023-08-12T01:55:05;100657.00;;;24.45;65.87
6144;BME280;3103;49.492;8.474;2023-08-12T01:57:33;100660.53;;;24.45;65.83
6144;BME280;3103;49.492;8.474;2023-08-12T02:00:05;100662.66;;;24.40;66.34
6144;BME280;3103;49.492;8.474;2023-08-12T02:02:43;100653.94;;;24.29;67.19
6144;BME280;3103;49.492;8.474;2023-08-12T02:05:14;100652.97;;;24.25;67.54
6144;BME280;3103;49.492;8.474;2023-08-12T02:07:41;100652.00;;;24.21;67.67
6144;BME280;3103;49.492;8.474;2023-08-12T02:10:09;100660.72;;;24.23;67.45
6144;BME280;3103;49.492;8.474;2023-08-12T02:12:36;100660.06;;;24.17;67.71
6144;BME280;3103;49.492;8.474;2023-08-12T02:15:04;100645.88;;;24.24;67.23
6144;BME280;3103;49.492;8.474;2023-08-12T02:17:33;100642.00;;;24.34;67.10
6144;BME280;3103;49.492;8.474;2023-08-12T02:20:00;100651.03;;;24.34;66.79
6144;BME280;3103;49.492;8.474;2023-08-12T02:22:32;100641.19;;;24.33;66.29
6144;BME280;3103;49.492;8.474;2023-08-12T02:24:59;100650.88;;;24.39;65.77
6144;BME280;3103;49.492;8.474;2023-08-12T02:27:29;100648.75;;;24.45;65.64
6144;BME280;3103;49.492;8.474;2023-08-12T02:29:56;100650.03;;;24.47;65.21
6144;BME280;3103;49.492;8.474;2023-08-12T02:32:23;100653.91;;;24.55;65.69
6144;BME280;3103;49.492;8.474;2023-08-12T02:34:50;100652.91;;;24.60;65.29
6144;BME280;3103;49.492;8.474;2023-08-12T02:37:17;100652.75;;;24.56;65.17
6144;BME280;3103;49.492;8.474;2023-08-12T02:39:45;100650.84;;;24.48;65.10
6144;BME280;3103;49.492;8.474;2023-08-12T02:42:12;100655.53;;;24.47;65.33
6144;BME280;3103;49.492;8.474;2023-08-12T02:44:39;100656.22;;;24.36;65.75
6144;BME280;3103;49.492;8.474;2023-08-12T02:47:06;100671.88;;;24.26;66.11
6144;BME280;3103;49.492;8.474;2023-08-12T02:49:33;100687.53;;;24.17;66.50
6144;BME280;3103;49.492;8.474;2023-08-12T02:52:00;100671.09;;;24.09;66.97
6144;BME280;3103;49.492;8.474;2023-08-12T02:54:27;100692.22;;;24.08;67.34
6144;BME280;3103;49.492;8.474;2023-08-12T02:56:54;100683.38;;;23.94;67.60
6144;BME280;3103;49.492;8.474;2023-08-12T02:59:21;100686.88;;;24.03;68.03
6144;BME280;3103;49.492;8.474;2023-08-12T03:01:48;100686.75;;;24.08;67.70
6144;BME280;3103;49.492;8.474;2023-08-12T03:04:15;100677.03;;;24.02;68.01
6144;BME280;3103;49.492;8.474;2023-08-12T03:06:42;100672.03;;;24.13;67.44
6144;BME280;3103;49.492;8.474;2023-08-12T03:09:09;100675.44;;;24.10;67.60
6144;BME280;3103;49.492;8.474;2023-08-12T03:11:36;100679.00;;;24.10;68.03
6144;BME280;3103;49.492;8.474;2023-08-12T03:14:06;100676.91;;;24.07;68.60
6144;BME280;3103;49.492;8.474;2023-08-12T03:16:34;100670.91;;;24.05;68.32
6144;BME280;3103;49.492;8.474;2023-08-12T03:19:01;100684.81;;;24.00;68.95
6144;BME280;3103;49.492;8.474;2023-08-12T03:21:28;100681.41;;;24.12;68.61
6144;BME280;3103;49.492;8.474;2023-08-12T03:23:56;100680.09;;;24.26;67.79
6144;BME280;3103;49.492;8.474;2023-08-12T03:26:23;100680.56;;;24.46;66.96
6144;BME280;3103;49.492;8.474;2023-08-12T03:28:52;100673.13;;;24.55;66.27
6144;BME280;3103;49.492;8.474;2023-08-12T03:31:19;100674.13;;;24.42;67.02
6144;BME280;3103;49.492;8.474;2023-08-12T03:33:47;100672.53;;;24.23;67.62
6144;BME280;3103;49.492;8.474;2023-08-12T03:36:14;100671.88;;;24.26;67.54
6144;BME280;3103;49.492;8.474;2023-08-12T03:38:41;100668.31;;;24.35;67.18
6144;BME280;3103;49.492;8.474;2023-08-12T03:41:13;100671.22;;;24.12;68.59
6144;BME280;3103;49.492;8.474;2023-08-12T03:43:41;100674.13;;;24.42;67.32
6144;BME280;3103;49.492;8.474;2023-08-12T03:46:09;100660.22;;;24.47;66.45
6144;BME280;3103;49.492;8.474;2023-08-12T03:48:37;100648.44;;;24.29;67.78
6144;BME280;3103;49.492;8.474;2023-08-12T03:51:04;100652.97;;;24.25;68.41
6144;BME280;3103;49.492;8.474;2023-08-12T03:53:31;100647.34;;;24.21;68.61
6144;BME280;3103;49.492;8.474;2023-08-12T03:55:58;100644.59;;;24.13;68.86
6144;BME280;3103;49.492;8.474;2023-08-12T03:58:27;100650.88;;;24.22;68.66
6144;BME280;3103;49.492;8.474;2023-08-12T04:00:54;100643.31;;;24.10;69.24
6144;BME280;3103;49.492;8.474;2023-08-12T04:03:22;100656.72;;;24.12;69.23
6144;BME280;3103;49.492;8.474;2023-08-12T04:05:50;100658.16;;;24.09;69.28
6144;BME280;3103;49.492;8.474;2023-08-12T04:08:21;100654.63;;;24.09;69.57
6144;BME280;3103;49.492;8.474;2023-08-12T04:10:48;100664.63;;;24.22;68.70
6144;BME280;3103;49.492;8.474;2023-08-12T04:13:15;100659.75;;;24.19;68.90
6144;BME280;3103;49.492;8.474;2023-08-12T04:15:42;100659.94;;;24.05;69.59
6144;BME280;3103;49.492;8.474;2023-08-12T04:18:14;100663.97;;;24.08;69.60
6144;BME280;3103;49.492;8.474;2023-08-12T04:20:41;100645.06;;;24.06;69.64
6144;BME280;3103;49.492;8.474;2023-08-12T04:23:07;100649.44;;;23.98;70.19
6144;BME280;3103;49.492;8.474;2023-08-12T04:25:35;100648.00;;;24.01;70.23
6144;BME280;3103;49.492;8.474;2023-08-12T04:28:02;100644.44;;;24.09;69.44
6144;BME280;3103;49.492;8.474;2023-08-12T04:30:31;100650.72;;;24.01;70.42
6144;BME280;3103;49.492;8.474;2023-08-12T04:32:58;100650.56;;;24.06;69.57
6144;BME280;3103;49.492;8.474;2023-08-12T04:35:31;100650.09;;;23.95;70.14
6144;BME280;3103;49.492;8.474;2023-08-12T04:37:59;100645.56;;;23.99;69.84
6144;BME280;3103;49.492;8.474;2023-08-12T04:40:27;100647.34;;;23.78;70.62
6144;BME280;3103;49.492;8.474;2023-08-12T04:42:55;100653.16;;;23.85;70.95
6144;BME280;3103;49.492;8.474;2023-08-12T04:45:22;100651.38;;;23.89;70.45
6144;BME280;3103;49.492;8.474;2023-08-12T04:47:50;100647.34;;;23.87;70.84
6144;BME280;3103;49.492;8.474;2023-08-12T04:50:18;100629.78;;;23.79;71.35
6144;BME280;3103;49.492;8.474;2023-08-12T04:52:45;100637.34;;;23.82;71.08
6144;BME280;3103;49.492;8.474;2023-08-12T04:55:13;100637.66;;;23.72;71.71
6144;BME280;3103;49.492;8.474;2023-08-12T04:57:42;100640.91;;;23.65;72.10
6144;BME280;3103;49.492;8.474;2023-08-12T05:00:09;100637.03;;;23.66;72.11
6144;BME280;3103;49.492;8.474;2023-08-12T05:02:36;100635.91;;;23.85;71.06
6144;BME280;3103;49.492;8.474;2023-08-12T05:05:04;100636.69;;;23.77;71.79
6144;BME280;3103;49.492;8.474;2023-08-12T05:07:33;100639.28;;;23.73;71.91
6144;BME280;3103;49.492;8.474;2023-08-12T05:10:01;100626.53;;;23.86;71.04
6144;BME280;3103;49.492;8.474;2023-08-12T05:12:30;100623.81;;;23.94;70.57
6144;BME280;3103;49.492;8.474;2023-08-12T05:14:57;100626.72;;;23.81;71.59
6144;BME280;3103;49.492;8.474;2023-08-12T05:17:24;100623.47;;;23.96;70.95
6144;BME280;3103;49.492;8.474;2023-08-12T05:19:51;100633.00;;;23.98;70.62
6144;BME280;3103;49.492;8.474;2023-08-12T05:22:18;100619.78;;;23.83;71.62
6144;BME280;3103;49.492;8.474;2023-08-12T05:24:46;100629.91;;;24.00;71.24
6144;BME280;3103;49.492;8.474;2023-08-12T05:27:13;100620.69;;;24.05;70.92
6144;BME280;3103;49.492;8.474;2023-08-12T05:29:40;100618.25;;;24.29;70.32
6144;BME280;3103;49.492;8.474;2023-08-12T05:32:08;100632.47;;;24.14;70.73
6144;BME280;3103;49.492;8.474;2023-08-12T05:34:35;100627.94;;;24.18;70.61
6144;BME280;3103;49.492;8.474;2023-08-12T05:37:02;100623.91;;;24.33;69.89
6144;BME280;3103;49.492;8.474;2023-08-12T05:39:29;100622.63;;;24.13;70.89
6144;BME280;3103;49.492;8.474;2023-08-12T05:41:56;100624.44;;;24.00;71.30
6144;BME280;3103;49.492;8.474;2023-08-12T05:44:23;100622.19;;;23.76;72.12
6144;BME280;3103;49.492;8.474;2023-08-12T05:46:50;100614.13;;;23.80;71.96
6144;BME280;3103;49.492;8.474;2023-08-12T05:49:17;100617.19;;;23.69;72.40
6144;BME280;3103;49.492;8.474;2023-08-12T05:51:44;100625.41;;;23.95;71.34
6144;BME280;3103;49.492;8.474;2023-08-12T05:54:11;100613.94;;;23.85;72.52
6144;BME280;3103;49.492;8.474;2023-08-12T05:56:38;100622.31;;;24.14;71.25
6144;BME280;3103;49.492;8.474;2023-08-12T05:59:05;100619.88;;;24.39;69.81
6144;BME280;3103;49.492;8.474;2023-08-12T06:01:32;100619.41;;;24.37;70.14
6144;BME280;3103;49.492;8.474;2023-08-12T06:03:58;100620.25;;;24.67;68.79
6144;BME280;3103;49.492;8.474;2023-08-12T06:06:26;100622.22;;;24.49;69.43
6144;BME280;3103;49.492;8.474;2023-08-12T06:08:52;100624.19;;;24.86;67.81
6144;BME280;3103;49.492;8.474;2023-08-12T06:11:20;100619.72;;;24.73;68.02
6144;BME280;3103;49.492;8.474;2023-08-12T06:13:46;100629.09;;;24.72;67.97
6144;BME280;3103;49.492;8.474;2023-08-12T06:16:13;100637.81;;;24.74;67.92
6144;BME280;3103;49.492;8.474;2023-08-12T06:18:40;100634.69;;;24.93;67.34
6144;BME280;3103;49.492;8.474;2023-08-12T06:21:07;100636.91;;;25.29;65.91
6144;BME280;3103;49.492;8.474;2023-08-12T06:23:34;100642.31;;;25.17;66.04
6144;BME280;3103;49.492;8.474;2023-08-12T06:26:01;100635.50;;;24.94;66.62
6144;BME280;3103;49.492;8.474;2023-08-12T06:28:28;100634.84;;;24.88;67.02
6144;BME280;3103;49.492;8.474;2023-08-12T06:30:55;100630.97;;;24.89;67.01
6144;BME280;3103;49.492;8.474;2023-08-12T06:33:22;100632.72;;;25.02;66.29
6144;BME280;3103;49.492;8.474;2023-08-12T06:35:50;100639.44;;;25.13;65.91
6144;BME280;3103;49.492;8.474;2023-08-12T06:38:17;100647.13;;;25.29;65.87
6144;BME280;3103;49.492;8.474;2023-08-12T06:40:44;100640.47;;;25.30;66.29
6144;BME280;3103;49.492;8.474;2023-08-12T06:43:11;100636.41;;;25.36;65.93
6144;BME280;3103;49.492;8.474;2023-08-12T06:45:38;100638.44;;;25.18;66.25
6144;BME280;3103;49.492;8.474;2023-08-12T06:48:05;100628.66;;;25.08;67.23
6144;BME280;3103;49.492;8.474;2023-08-12T06:50:33;100624.53;;;25.23;66.05
6144;BME280;3103;49.492;8.474;2023-08-12T06:53:00;100629.25;;;25.14;66.77
6144;BME280;3103;49.492;8.474;2023-08-12T06:55:26;100629.63;;;25.04;67.83
6144;BME280;3103;49.492;8.474;2023-08-12T06:57:53;100635.78;;;25.30;66.56
6144;BME280;3103;49.492;8.474;2023-08-12T07:00:20;100639.50;;;25.34;66.33
6144;BME280;3103;49.492;8.474;2023-08-12T07:02:48;100644.88;;;24.93;68.54
6144;BME280;3103;49.492;8.474;2023-08-12T07:05:16;100640.97;;;25.02;67.82
6144;BME280;3103;49.492;8.474;2023-08-12T07:07:43;100647.28;;;24.94;68.83
6144;BME280;3103;49.492;8.474;2023-08-12T07:10:10;100652.28;;;25.01;68.31
6144;BME280;3103;49.492;8.474;2023-08-12T07:12:37;100659.28;;;25.19;67.69
6144;BME280;3103;49.492;8.474;2023-08-12T07:15:04;100665.13;;;25.17;67.77
6144;BME280;3103;49.492;8.474;2023-08-12T07:17:31;100652.75;;;25.03;68.22
6144;BME280;3103;49.492;8.474;2023-08-12T07:19:58;100651.47;;;25.00;68.58
6144;BME280;3103;49.492;8.474;2023-08-12T07:22:25;100647.09;;;24.99;68.55
6144;BME280;3103;49.492;8.474;2023-08-12T07:24:52;100640.19;;;24.93;69.37
6144;BME280;3103;49.492;8.474;2023-08-12T07:27:19;100650.03;;;24.94;69.42
6144;BME280;3103;49.492;8.474;2023-08-12T07:29:46;100651.44;;;25.09;69.49
6144;BME280;3103;49.492;8.474;2023-08-12T07:32:14;100642.19;;;25.13;69.16
6144;BME280;3103;49.492;8.474;2023-08-12T07:34:40;100638.16;;;25.11;69.85
6144;BME280;3103;49.492;8.474;2023-08-12T07:37:07;100635.44;;;25.11;69.88
6144;BME280;3103;49.492;8.474;2023-08-12T07:39:34;100634.28;;;25.12;70.35
6144;BME280;3103;49.492;8.474;2023-08-12T07:42:01;100634.72;;;25.23;69.83
6144;BME280;3103;49.492;8.474;2023-08-12T07:44:28;100633.66;;;25.36;69.50
6144;BME280;3103;49.492;8.474;2023-08-12T07:46:55;100631.97;;;25.43;69.36
6144;BME280;3103;49.492;8.474;2023-08-12T07:49:22;100630.91;;;25.36;69.40
6144;BME280;3103;49.492;8.474;2023-08-12T07:51:49;100638.59;;;25.72;67.96
6144;BME280;3103;49.492;8.474;2023-08-12T07:54:16;100637.56;;;25.97;66.59
6144;BME280;3103;49.492;8.474;2023-08-12T07:56:43;100627.81;;;26.00;66.33
6144;BME280;3103;49.492;8.474;2023-08-12T07:59:10;100631.19;;;26.06;65.94
6144;BME280;3103;49.492;8.474;2023-08-12T08:01:37;100629.75;;;26.78;63.65
6144;BME280;3103;49.492;8.474;2023-08-12T08:04:05;100646.41;;;27.30;61.21
6144;BME280;3103;49.492;8.474;2023-08-12T08:06:32;100636.19;;;26.94;61.49
6144;BME280;3103;49.492;8.474;2023-08-12T08:08:59;100636.75;;;26.63;62.48
6144;BME280;3103;49.492;8.474;2023-08-12T08:11:30;100635.72;;;26.68;62.68
6144;BME280;3103;49.492;8.474;2023-08-12T08:13:58;100641.03;;;27.21;60.08
6144;BME280;3103;49.492;8.474;2023-08-12T08:16:25;100648.00;;;26.70;61.93
6144;BME280;3103;49.492;8.474;2023-08-12T08:18:52;100639.19;;;27.13;61.02
6144;BME280;3103;49.492;8.474;2023-08-12T08:21:19;100648.97;;;27.23;60.08
6144;BME280;3103;49.492;8.474;2023-08-12T08:23:46;100646.75;;;27.29;59.71
6144;BME280;3103;49.492;8.474;2023-08-12T08:26:13;100650.31;;;27.29;60.05
6144;BME280;3103;49.492;8.474;2023-08-12T08:28:42;100648.88;;;27.72;58.99
6144;BME280;3103;49.492;8.474;2023-08-12T08:31:10;100653.44;;;27.15;60.17
6144;BME280;3103;49.492;8.474;2023-08-12T08:33:37;100652.16;;;27.13;60.94
6144;BME280;3103;49.492;8.474;2023-08-12T08:36:04;100645.84;;;26.76;61.91
6144;BME280;3103;49.492;8.474;2023-08-12T08:38:31;100643.72;;;26.48;62.96
6144;BME280;3103;49.492;8.474;2023-08-12T08:40:58;100652.28;;;27.16;61.26
6144;BME280;3103;49.492;8.474;2023-08-12T08:43:26;100643.94;;;27.77;58.98
6144;BME280;3103;49.492;8.474;2023-08-12T08:45:55;100649.53;;;28.09;57.72
6144;BME280;3103;49.492;8.474;2023-08-12T08:48:23;100640.72;;;27.75;58.17
6144;BME280;3103;49.492;8.474;2023-08-12T08:50:50;100648.47;;;27.45;59.28
6144;BME280;3103;49.492;8.474;2023-08-12T08:53:18;100646.72;;;27.53;59.78
6144;BME280;3103;49.492;8.474;2023-08-12T08:55:47;100638.72;;;27.88;58.36
6144;BME280;3103;49.492;8.474;2023-08-12T08:58:14;100640.41;;;27.93;58.46
6144;BME280;3103;49.492;8.474;2023-08-12T09:00:46;100639.97;;;27.91;58.58
6144;BME280;3103;49.492;8.474;2023-08-12T09:03:14;100629.22;;;28.01;57.98
6144;BME280;3103;49.492;8.474;2023-08-12T09:05:42;100623.53;;;27.82;58.62
6144;BME280;3103;49.492;8.474;2023-08-12T09:08:10;100617.34;;;28.01;58.34
6144;BME280;3103;49.492;8.474;2023-08-12T09:10:39;100623.53;;;27.82;58.04
6144;BME280;3103;49.492;8.474;2023-08-12T09:13:09;100613.13;;;27.63;59.49
6144;BME280;3103;49.492;8.474;2023-08-12T09:15:36;100612.97;;;27.32;60.36
6144;BME280;3103;49.492;8.474;2023-08-12T09:18:06;100619.84;;;27.38;60.58
6144;BME280;3103;49.492;8.474;2023-08-12T09:20:34;100620.03;;;27.69;59.71
6144;BME280;3103;49.492;8.474;2023-08-12T09:23:02;100624.34;;;27.83;59.69
6144;BME280;3103;49.492;8.474;2023-08-12T09:25:30;100620.13;;;27.73;59.82
6144;BME280;3103;49.492;8.474;2023-08-12T09:28:00;100616.09;;;27.58;60.08
6144;BME280;3103;49.492;8.474;2023-08-12T09:30:31;100615.66;;;27.56;60.26
6144;BME280;3103;49.492;8.474;2023-08-12T09:33:00;100619.31;;;27.32;60.88
6144;BME280;3103;49.492;8.474;2023-08-12T09:35:40;100620.22;;;27.24;61.16
6144;BME280;3103;49.492;8.474;2023-08-12T09:38:11;100608.38;;;27.36;61.11
6144;BME280;3103;49.492;8.474;2023-08-12T09:40:40;100615.25;;;27.42;60.63
6144;BME280;3103;49.492;8.474;2023-08-12T09:43:09;100617.31;;;27.45;60.27
6144;BME280;3103;49.492;8.474;2023-08-12T09:45:38;100617.91;;;27.38;60.56
6144;BME280;3103;49.492;8.474;2023-08-12T09:48:06;100635.22;;;27.51;60.00
6144;BME280;3103;49.492;8.474;2023-08-12T09:50:35;100620.03;;;27.57;59.19
6144;BME280;3103;49.492;8.474;2023-08-12T09:53:03;100619.47;;;27.64;58.70
6144;BME280;3103;49.492;8.474;2023-08-12T09:55:31;100620.28;;;27.64;58.61
6144;BME280;3103;49.492;8.474;2023-08-12T09:58:03;100616.84;;;27.43;58.86
6144;BME280;3103;49.492;8.474;2023-08-12T10:00:33;100607.34;;;27.28;59.48
6144;BME280;3103;49.492;8.474;2023-08-12T10:03:00;100608.13;;;27.41;59.48
6144;BME280;3103;49.492;8.474;2023-08-12T10:05:31;100603.94;;;27.59;58.90
6144;BME280;3103;49.492;8.474;2023-08-12T10:07:58;100615.44;;;27.73;57.81
6144;BME280;3103;49.492;8.474;2023-08-12T10:10:29;100617.03;;;28.02;56.97
6144;BME280;3103;49.492;8.474;2023-08-12T10:12:57;100617.53;;;27.92;57.25
6144;BME280;3103;49.492;8.474;2023-08-12T10:15:25;100621.50;;;27.79;57.63
6144;BME280;3103;49.492;8.474;2023-08-12T10:17:52;100631.63;;;27.63;57.68
6144;BME280;3103;49.492;8.474;2023-08-12T10:20:24;100636.34;;;27.62;58.11
6144;BME280;3103;49.492;8.474;2023-08-12T10:22:52;100633.72;;;27.66;58.33
6144;BME280;3103;49.492;8.474;2023-08-12T10:25:20;100633.16;;;27.60;58.36
6144;BME280;3103;49.492;8.474;2023-08-12T10:27:50;100628.34;;;27.45;58.97
6144;BME280;3103;49.492;8.474;2023-08-12T10:30:17;100637.00;;;27.31;59.42
6144;BME280;3103;49.492;8.474;2023-08-12T10:32:46;100623.75;;;27.37;59.29
6144;BME280;3103;49.492;8.474;2023-08-12T10:35:14;100625.59;;;27.45;58.92
6144;BME280;3103;49.492;8.474;2023-08-12T10:37:42;100624.00;;;27.32;59.31
6144;BME280;3103;49.492;8.474;2023-08-12T10:40:20;100619.63;;;27.31;59.30
6144;BME280;3103;49.492;8.474;2023-08-12T10:42:49;100618.50;;;27.32;59.78
6144;BME280;3103;49.492;8.474;2023-08-12T10:45:17;100614.09;;;27.43;59.64
6144;BME280;3103;49.492;8.474;2023-08-12T10:47:53;100605.06;;;27.58;59.44
6144;BME280;3103;49.492;8.474;2023-08-12T10:50:44;100600.25;;;27.55;59.40
6144;BME280;3103;49.492;8.474;2023-08-12T10:55:57;100594.69;;;27.27;60.54
6144;BME280;3103;49.492;8.474;2023-08-12T10:58:37;100592.44;;;27.17;60.74
6144;BME280;3103;49.492;8.474;2023-08-12T11:01:11;100604.94;;;27.02;61.15
6144;BME280;3103;49.492;8.474;2023-08-12T11:03:43;100605.41;;;26.92;62.58
6144;BME280;3103;49.492;8.474;2023-08-12T11:06:11;100610.69;;;26.85;62.94
6144;BME280;3103;49.492;8.474;2023-08-12T11:08:46;100618.16;;;26.84;63.12
6144;BME280;3103;49.492;8.474;2023-08-12T11:11:22;100644.00;;;26.80;63.76
6144;BME280;3103;49.492;8.474;2023-08-12T11:13:54;100658.06;;;26.54;67.26
6144;BME280;3103;49.492;8.474;2023-08-12T11:16:36;100665.47;;;26.08;72.99
6144;BME280;3103;49.492;8.474;2023-08-12T11:19:03;100669.19;;;25.91;74.22
6144;BME280;3103;49.492;8.474;2023-08-12T11:21:30;100676.00;;;25.64;77.31
6144;BME280;3103;49.492;8.474;2023-08-12T11:23:59;100695.41;;;25.68;79.71
6144;BME280;3103;49.492;8.474;2023-08-12T11:26:26;100738.56;;;25.46;83.64
6144;BME280;3103;49.492;8.474;2023-08-12T11:28:53;100741.19;;;25.43;85.01
6144;BME280;3103;49.492;8.474;2023-08-12T11:31:21;100690.38;;;25.49;85.17
6144;BME280;3103;49.492;8.474;2023-08-12T11:33:49;100688.03;;;25.30;86.58
6144;BME280;3103;49.492;8.474;2023-08-12T11:36:16;100706.91;;;25.11;87.38
6144;BME280;3103;49.492;8.474;2023-08-12T11:38:43;100724.56;;;24.93;90.28
6144;BME280;3103;49.492;8.474;2023-08-12T11:41:10;100733.97;;;24.74;92.07
6144;BME280;3103;49.492;8.474;2023-08-12T11:43:37;100720.81;;;24.97;90.94
6144;BME280;3103;49.492;8.474;2023-08-12T11:46:04;100668.41;;;25.11;90.09
6144;BME280;3103;49.492;8.474;2023-08-12T11:48:31;100630.13;;;24.97;89.86
6144;BME280;3103;49.492;8.474;2023-08-12T11:50:59;100651.53;;;24.83;90.50
6144;BME280;3103;49.492;8.474;2023-08-12T11:53:26;100641.44;;;24.57;91.36
6144;BME280;3103;49.492;8.474;2023-08-12T11:55:53;100639.47;;;24.67;90.73
6144;BME280;3103;49.492;8.474;2023-08-12T11:58:20;100632.31;;;24.74;90.04
6144;BME280;3103;49.492;8.474;2023-08-12T12:00:48;100636.53;;;24.80;89.09
6144;BME280;3103;49.492;8.474;2023-08-12T12:03:16;100642.72;;;24.98;88.57
6144;BME280;3103;49.492;8.474;2023-08-12T12:05:45;100642.41;;;25.00;88.59
6144;BME280;3103;49.492;8.474;2023-08-12T12:08:13;100639.22;;;24.89;90.85
6144;BME280;3103;49.492;8.474;2023-08-12T12:10:40;100643.84;;;24.68;91.94
6144;BME280;3103;49.492;8.474;2023-08-12T12:13:07;100632.31;;;24.74;91.87
6144;BME280;3103;49.492;8.474;2023-08-12T12:15:42;100630.34;;;24.83;90.35
6144;BME280;3103;49.492;8.474;2023-08-12T12:18:11;100634.53;;;24.90;89.94
6144;BME280;3103;49.492;8.474;2023-08-12T12:20:58;100630.94;;;25.06;88.58
6144;BME280;3103;49.492;8.474;2023-08-12T12:23:29;100636.13;;;25.29;87.11
6144;BME280;3103;49.492;8.474;2023-08-12T12:26:01;100634.16;;;25.29;87.93
6144;BME280;3103;49.492;8.474;2023-08-12T12:28:29;100639.09;;;25.44;86.53
6144;BME280;3103;49.492;8.474;2023-08-12T12:30:56;100640.22;;;25.43;87.47
6144;BME280;3103;49.492;8.474;2023-08-12T12:33:23;100631.03;;;25.60;85.03
6144;BME280;3103;49.492;8.474;2023-08-12T12:35:50;100638.97;;;25.62;85.82
6144;BME280;3103;49.492;8.474;2023-08-12T12:38:26;100634.41;;;25.66;85.07
6144;BME280;3103;49.492;8.474;2023-08-12T12:40:53;100629.84;;;25.49;86.36
6144;BME280;3103;49.492;8.474;2023-08-12T12:43:20;100639.00;;;25.32;87.48
6144;BME280;3103;49.492;8.474;2023-08-12T12:45:47;100640.19;;;25.52;85.50
6144;BME280;3103;49.492;8.474;2023-08-12T12:48:14;100642.47;;;25.50;85.20
6144;BME280;3103;49.492;8.474;2023-08-12T12:50:40;100629.63;;;25.54;85.07
6144;BME280;3103;49.492;8.474;2023-08-12T12:53:07;100629.06;;;25.69;83.81
6144;BME280;3103;49.492;8.474;2023-08-12T12:55:34;100620.81;;;25.90;83.20
6144;BME280;3103;49.492;8.474;2023-08-12T12:58:01;100623.97;;;25.80;85.56
6144;BME280;3103;49.492;8.474;2023-08-12T13:00:28;100634.41;;;25.87;84.67
6144;BME280;3103;49.492;8.474;2023-08-12T13:02:55;100646.22;;;25.66;84.75
6144;BME280;3103;49.492;8.474;2023-08-12T13:05:22;100661.34;;;25.31;87.68
6144;BME280;3103;49.492;8.474;2023-08-12T13:07:48;100662.13;;;25.31;88.07
6144;BME280;3103;49.492;8.474;2023-08-12T13:10:15;100659.06;;;25.33;88.60
6144;BME280;3103;49.492;8.474;2023-08-12T13:12:42;100665.13;;;25.68;86.38
6144;BME280;3103;49.492;8.474;2023-08-12T13:15:09;100659.78;;;25.71;85.95
6144;BME280;3103;49.492;8.474;2023-08-12T13:17:36;100657.78;;;25.81;85.03